createdAt,value
2022-11-13T00:01:18.988Z,7.50
2022-11-13T00:03:46.558Z,7.40
2022-11-13T00:06:14.704Z,7.40
2022-11-13T00:08:42.678Z,7.40
2022-11-13T00:11:19.967Z,7.40
2022-11-13T00:13:48.615Z,7.40
2022-11-13T00:16:18.411Z,7.40
2022-11-13T00:18:46.065Z,7.40
2022-11-13T00:21:19.758Z,7.40
2022-11-13T00:23:46.619Z,7.40
2022-11-13T00:26:17.984Z,7.40
2022-11-13T00:28:44.875Z,7.40
2022-11-13T00:31:13.959Z,7.40
2022-11-13T00:36:29.193Z,7.50
2022-11-13T00:38:55.993Z,7.50
2022-11-13T00:41:24.061Z,7.40
2022-11-13T00:43:51.485Z,7.50
2022-11-13T00:46:22.167Z,7.50
2022-11-13T00:48:49.110Z,7.40
2022-11-13T00:51:16.018Z,7.40
2022-11-13T00:53:42.760Z,7.40
2022-11-13T00:56:09.681Z,7.30
2022-11-13T00:58:36.648Z,7.30
2022-11-13T01:01:11.688Z,7.30
2022-11-13T01:03:39.673Z,7.20
2022-11-13T01:06:16.833Z,7.20
2022-11-13T01:08:43.817Z,7.10
2022-11-13T01:11:13.725Z,7.10
2022-11-13T01:13:42.161Z,7.10
2022-11-13T01:16:10.691Z,7.10
2022-11-13T01:18:37.515Z,7.10
2022-11-13T01:21:06.898Z,7.10
2022-11-13T01:23:37.523Z,7.10
2022-11-13T01:26:07.823Z,7.10
2022-11-13T01:28:37.032Z,7.10
2022-11-13T01:31:16.690Z,7.00
2022-11-13T01:33:45.203Z,7.00
2022-11-13T01:36:20.818Z,7.00
2022-11-13T01:38:48.445Z,6.90
2022-11-13T01:41:24.431Z,6.90
2022-11-13T01:43:55.366Z,6.90
2022-11-13T01:46:28.098Z,6.90
2022-11-13T01:48:59.972Z,6.80
2022-11-13T01:51:33.970Z,6.80
2022-11-13T01:54:04.890Z,6.80
2022-11-13T01:56:31.867Z,6.80
2022-11-13T01:59:07.107Z,6.80
2022-11-13T02:01:36.853Z,6.80
2022-11-13T02:04:03.692Z,6.80
2022-11-13T02:06:40.902Z,6.80
2022-11-13T02:09:09.485Z,6.70
2022-11-13T02:11:37.719Z,6.70
2022-11-13T02:14:05.660Z,6.60
2022-11-13T02:16:36.070Z,6.60
2022-11-13T02:19:07.788Z,6.50
2022-11-13T02:21:56.106Z,6.50
2022-11-13T02:24:37.772Z,6.50
2022-11-13T02:27:10.097Z,6.50
2022-11-13T02:29:36.845Z,6.40
2022-11-13T02:32:03.578Z,6.40
2022-11-13T02:34:30.338Z,6.40
2022-11-13T02:36:57.080Z,6.30
2022-11-13T02:39:23.891Z,6.30
2022-11-13T02:41:50.571Z,6.30
2022-11-13T02:44:17.556Z,6.20
2022-11-13T02:46:44.323Z,6.20
2022-11-13T02:49:14.250Z,6.20
2022-11-13T02:51:41.053Z,6.20
2022-11-13T02:54:07.792Z,6.10
2022-11-13T02:56:34.533Z,6.10
2022-11-13T02:59:01.336Z,6.10
2022-11-13T03:01:28.186Z,6.10
2022-11-13T03:03:57.767Z,6.00
2022-11-13T03:06:25.177Z,6.00
2022-11-13T03:08:51.879Z,6.10
2022-11-13T03:11:18.779Z,6.00
2022-11-13T03:13:56.504Z,6.00
2022-11-13T03:16:28.818Z,6.00
2022-11-13T03:18:56.418Z,6.00
2022-11-13T03:21:23.253Z,6.00
2022-11-13T03:23:50.021Z,5.90
2022-11-13T03:26:17.691Z,5.90
2022-11-13T03:28:44.500Z,6.00
2022-11-13T03:31:11.309Z,5.90
2022-11-13T03:33:38.027Z,5.90
2022-11-13T03:36:05.490Z,6.00
2022-11-13T03:38:32.503Z,6.00
2022-11-13T03:40:59.554Z,6.00
2022-11-13T03:43:26.241Z,6.00
2022-11-13T03:45:53.028Z,6.10
2022-11-13T03:48:19.797Z,6.10
2022-11-13T03:50:49.918Z,6.10
2022-11-13T03:53:16.759Z,6.20
2022-11-13T03:55:44.260Z,6.30
2022-11-13T03:58:14.131Z,6.30
2022-11-13T04:00:42.855Z,6.40
2022-11-13T04:03:10.439Z,6.40
2022-11-13T04:05:37.792Z,6.50
2022-11-13T04:08:05.238Z,6.50
2022-11-13T04:10:32.038Z,6.60
2022-11-13T04:12:58.790Z,6.60
2022-11-13T04:15:25.597Z,6.70
2022-11-13T04:17:52.351Z,6.70
2022-11-13T04:20:19.253Z,6.70
2022-11-13T04:22:45.983Z,6.80
2022-11-13T04:25:12.796Z,6.80
2022-11-13T04:27:46.750Z,6.80
2022-11-13T04:30:13.530Z,6.90
2022-11-13T04:32:43.663Z,6.90
2022-11-13T04:35:10.882Z,6.90
2022-11-13T04:37:37.604Z,7.00
2022-11-13T04:40:05.406Z,7.00
2022-11-13T04:42:50.624Z,7.00
2022-11-13T04:45:24.158Z,7.10
2022-11-13T04:47:51.611Z,7.10
2022-11-13T04:50:18.857Z,7.10
2022-11-13T04:52:45.892Z,7.10
2022-11-13T04:55:13.363Z,7.20
2022-11-13T04:57:40.646Z,7.20
2022-11-13T05:00:09.058Z,7.20
2022-11-13T05:02:36.035Z,7.20
2022-11-13T05:05:05.182Z,7.20
2022-11-13T05:07:32.340Z,7.20
2022-11-13T05:09:59.666Z,7.20
2022-11-13T05:12:26.434Z,7.20
2022-11-13T05:14:53.176Z,7.20
2022-11-13T05:17:23.244Z,7.20
2022-11-13T05:19:49.966Z,7.20
2022-11-13T05:22:16.792Z,7.20
2022-11-13T05:24:43.548Z,7.20
2022-11-13T05:27:17.097Z,7.20
2022-11-13T05:29:44.601Z,7.20
2022-11-13T05:32:14.702Z,7.20
2022-11-13T05:34:41.506Z,7.10
2022-11-13T05:37:08.227Z,7.10
2022-11-13T05:39:35.010Z,7.10
2022-11-13T05:42:01.689Z,7.10
2022-11-13T05:44:28.542Z,7.10
2022-11-13T05:46:55.273Z,7.00
2022-11-13T05:49:21.967Z,7.00
2022-11-13T05:51:48.819Z,7.00
2022-11-13T05:54:15.655Z,7.00
2022-11-13T05:56:44.309Z,6.90
2022-11-13T05:59:11.160Z,6.90
2022-11-13T06:01:40.146Z,6.90
2022-11-13T06:04:08.054Z,6.80
2022-11-13T06:06:35.335Z,6.80
2022-11-13T06:09:04.623Z,6.80
2022-11-13T06:11:34.710Z,6.70
2022-11-13T06:14:01.815Z,6.70
2022-11-13T06:16:33.848Z,6.70
2022-11-13T06:19:03.934Z,6.60
2022-11-13T06:21:32.529Z,6.60
2022-11-13T06:24:01.540Z,6.50
2022-11-13T06:26:31.772Z,6.50
2022-11-13T06:28:59.719Z,6.50
2022-11-13T06:31:32.115Z,6.40
2022-11-13T06:33:59.966Z,6.40
2022-11-13T06:36:33.364Z,6.40
2022-11-13T06:39:00.683Z,6.40
2022-11-13T06:41:31.277Z,6.30
2022-11-13T06:44:02.612Z,6.30
2022-11-13T06:46:30.873Z,6.30
2022-11-13T06:48:57.979Z,6.30
2022-11-13T06:51:28.181Z,6.20
2022-11-13T06:53:55.429Z,6.20
2022-11-13T06:56:22.711Z,6.20
2022-11-13T06:58:49.767Z,6.20
2022-11-13T07:01:27.132Z,6.20
2022-11-13T07:03:54.119Z,6.20
2022-11-13T07:06:22.905Z,6.20
2022-11-13T07:08:49.864Z,6.20
2022-11-13T07:11:22.494Z,6.20
2022-11-13T07:13:49.992Z,6.10
2022-11-13T07:16:19.412Z,6.10
2022-11-13T07:18:53.425Z,6.10
2022-11-13T07:21:21.334Z,6.10
2022-11-13T07:23:51.157Z,6.10
2022-11-13T07:26:18.667Z,6.10
2022-11-13T07:28:46.258Z,6.10
2022-11-13T07:31:14.266Z,6.10
2022-11-13T07:33:41.070Z,6.10
2022-11-13T07:36:11.190Z,6.10
2022-11-13T07:38:38.262Z,6.10
2022-11-13T07:41:05.488Z,6.10
2022-11-13T07:43:32.211Z,6.10
2022-11-13T07:46:00.323Z,6.10
2022-11-13T07:48:28.137Z,6.10
2022-11-13T07:50:55.433Z,6.10
2022-11-13T07:53:25.729Z,6.10
2022-11-13T07:55:55.766Z,6.10
2022-11-13T07:58:22.766Z,6.10
2022-11-13T08:00:49.527Z,6.10
2022-11-13T08:03:17.565Z,6.10
2022-11-13T08:05:44.509Z,6.10
2022-11-13T08:08:15.100Z,6.20
2022-11-13T08:10:44.567Z,6.20
2022-11-13T08:13:11.697Z,6.30
2022-11-13T08:15:38.559Z,6.70
2022-11-13T08:18:06.176Z,8.00
2022-11-13T08:20:33.697Z,9.40
2022-11-13T08:23:02.066Z,10.80
2022-11-13T08:25:30.676Z,12.00
2022-11-13T08:27:57.722Z,13.00
2022-11-13T08:30:26.349Z,13.90
2022-11-13T08:32:53.658Z,14.80
2022-11-13T08:35:25.178Z,15.40
2022-11-13T08:37:53.560Z,16.10
2022-11-13T08:40:20.353Z,16.70
2022-11-13T08:42:47.174Z,17.10
2022-11-13T08:45:14.383Z,17.40
2022-11-13T08:47:43.812Z,17.40
2022-11-13T08:50:10.731Z,17.10
2022-11-13T08:52:37.548Z,16.60
2022-11-13T08:55:04.686Z,16.00
2022-11-13T08:57:31.421Z,15.40
2022-11-13T08:59:58.387Z,14.80
2022-11-13T09:02:25.281Z,14.40
2022-11-13T09:04:52.159Z,13.90
2022-11-13T09:07:23.285Z,13.60
2022-11-13T09:09:52.915Z,13.30
2022-11-13T09:12:19.988Z,13.10
2022-11-13T09:14:46.743Z,12.90
2022-11-13T09:17:13.674Z,12.70
2022-11-13T09:19:40.497Z,12.60
2022-11-13T09:22:10.340Z,12.60
2022-11-13T09:24:37.666Z,12.60
2022-11-13T09:27:04.596Z,12.60
2022-11-13T09:29:31.410Z,12.60
2022-11-13T09:31:58.177Z,12.60
2022-11-13T09:34:26.376Z,12.60
2022-11-13T09:36:53.530Z,12.70
2022-11-13T09:39:20.518Z,12.70
2022-11-13T09:42:18.723Z,12.80
2022-11-13T09:44:53.969Z,12.90
2022-11-13T09:47:26.552Z,12.90
2022-11-13T09:50:11.397Z,12.90
2022-11-13T09:52:41.967Z,13.00
2022-11-13T09:55:18.648Z,13.10
2022-11-13T09:58:05.322Z,13.10
2022-11-13T10:00:34.375Z,13.20
2022-11-13T10:06:18.968Z,13.40
2022-11-13T10:08:58.532Z,13.40
2022-11-13T10:11:36.575Z,13.50
2022-11-13T10:14:16.485Z,13.60
2022-11-13T10:17:06.951Z,13.70
2022-11-13T10:19:45.136Z,13.80
2022-11-13T10:22:34.849Z,14.00
2022-11-13T10:25:20.273Z,14.10
2022-11-13T10:28:00.149Z,14.20
2022-11-13T10:30:27.826Z,14.40
2022-11-13T10:32:54.587Z,14.50
2022-11-13T10:35:45.698Z,14.60
2022-11-13T10:38:25.028Z,14.70
2022-11-13T10:40:52.040Z,14.80
2022-11-13T10:43:25.698Z,14.90
2022-11-13T10:46:01.815Z,15.00
2022-11-13T10:48:37.606Z,15.10
2022-11-13T10:51:23.778Z,15.20
2022-11-13T10:53:51.097Z,15.30
2022-11-13T10:56:36.499Z,15.40
2022-11-13T10:59:13.436Z,15.50
2022-11-13T11:01:41.925Z,15.60
2022-11-13T11:04:29.056Z,15.70
2022-11-13T11:07:20.200Z,15.80
2022-11-13T11:09:49.383Z,15.90
2022-11-13T11:12:30.373Z,16.00
2022-11-13T11:14:58.581Z,16.10
2022-11-13T11:17:51.525Z,16.20
2022-11-13T11:20:23.936Z,16.30
2022-11-13T11:23:13.591Z,16.40
2022-11-13T11:26:04.019Z,16.50
2022-11-13T11:28:40.373Z,16.60
2022-11-13T11:31:28.425Z,16.70
2022-11-13T11:34:04.379Z,16.80
2022-11-13T11:36:57.627Z,16.90
2022-11-13T11:39:47.504Z,16.90
2022-11-13T11:42:38.465Z,17.10
2022-11-13T11:45:25.539Z,17.10
2022-11-13T11:47:53.908Z,17.30
2022-11-13T11:50:52.087Z,17.30
2022-11-13T11:53:39.587Z,17.40
2022-11-13T11:56:27.659Z,17.50
2022-11-13T11:59:19.698Z,17.60
2022-11-13T12:02:01.900Z,17.70
2022-11-13T12:04:38.721Z,17.70
2022-11-13T12:07:29.620Z,17.80
2022-11-13T12:09:59.108Z,17.90
2022-11-13T12:12:40.708Z,18.00
2022-11-13T12:15:31.145Z,18.10
2022-11-13T12:18:22.330Z,18.20
2022-11-13T12:21:02.575Z,18.30
2022-11-13T12:23:35.153Z,18.30
2022-11-13T12:26:14.982Z,18.40
2022-11-13T12:29:16.797Z,18.40
2022-11-13T12:32:14.315Z,18.50
2022-11-13T12:34:51.377Z,18.60
2022-11-13T12:37:32.823Z,18.60
2022-11-13T12:40:14.658Z,18.70
2022-11-13T12:42:57.283Z,18.70
2022-11-13T12:45:38.109Z,18.80
2022-11-13T12:48:11.460Z,18.80
2022-11-13T12:50:38.236Z,18.90
2022-11-13T12:53:08.831Z,18.90
2022-11-13T12:55:38.327Z,19.00
2022-11-13T12:58:10.543Z,18.90
2022-11-13T13:00:51.437Z,19.00
2022-11-13T13:03:31.384Z,19.00
2022-11-13T13:06:12.345Z,19.10
2022-11-13T13:08:46.574Z,19.10
2022-11-13T13:11:42.926Z,19.10
2022-11-13T13:14:40.468Z,19.10
2022-11-13T13:17:27.586Z,19.20
2022-11-13T13:20:10.917Z,19.10
2022-11-13T13:22:37.712Z,19.10
2022-11-13T13:25:22.225Z,19.10
2022-11-13T13:28:08.214Z,19.10
2022-11-13T13:31:06.066Z,19.00
2022-11-13T13:33:54.433Z,19.00
2022-11-13T13:36:35.111Z,19.00
2022-11-13T13:39:23.067Z,18.90
2022-11-13T13:42:21.150Z,18.80
2022-11-13T13:45:31.266Z,18.80
2022-11-13T13:47:58.935Z,18.80
2022-11-13T13:50:29.531Z,18.70
2022-11-13T13:52:58.812Z,18.60
2022-11-13T13:55:38.786Z,18.50
2022-11-13T13:58:12.806Z,18.70
2022-11-13T14:00:59.068Z,19.00
2022-11-13T14:03:28.138Z,19.30
2022-11-13T14:06:00.939Z,19.70
2022-11-13T14:08:30.297Z,20.10
2022-11-13T14:10:57.521Z,20.30
2022-11-13T14:13:26.737Z,20.20
2022-11-13T14:16:02.141Z,19.90
2022-11-13T14:18:29.502Z,19.60
2022-11-13T14:20:59.205Z,19.30
2022-11-13T14:23:32.593Z,19.10
2022-11-13T14:25:59.868Z,18.80
2022-11-13T14:28:43.887Z,18.60
2022-11-13T14:31:12.974Z,18.30
2022-11-13T14:34:01.947Z,18.10
2022-11-13T14:36:34.050Z,17.90
2022-11-13T14:39:01.115Z,17.70
2022-11-13T14:41:39.454Z,17.50
2022-11-13T14:44:06.216Z,17.40
2022-11-13T14:46:47.737Z,17.20
2022-11-13T14:49:25.782Z,17.10
2022-11-13T14:51:57.523Z,17.00
2022-11-13T14:55:13.164Z,16.80
2022-11-13T14:57:26.050Z,16.70
2022-11-13T14:59:52.726Z,16.50
2022-11-13T15:02:20.311Z,16.40
2022-11-13T15:04:47.037Z,16.30
2022-11-13T15:07:31.626Z,16.10
2022-11-13T15:09:59.222Z,16.00
2022-11-13T15:12:26.063Z,15.90
2022-11-13T15:14:53.975Z,15.80
2022-11-13T15:17:22.578Z,15.60
2022-11-13T15:19:52.695Z,15.50
2022-11-13T15:22:28.098Z,15.40
2022-11-13T15:24:55.467Z,15.20
2022-11-13T15:27:22.182Z,15.10
2022-11-13T15:29:49.032Z,15.00
2022-11-13T15:32:16.246Z,14.90
2022-11-13T15:34:43.472Z,14.80
2022-11-13T15:37:15.209Z,14.70
2022-11-13T15:39:42.435Z,14.60
2022-11-13T15:42:15.049Z,14.50
2022-11-13T15:44:41.838Z,14.40
2022-11-13T15:47:32.184Z,14.30
2022-11-13T15:50:15.837Z,14.20
2022-11-13T15:52:47.223Z,14.10
2022-11-13T15:55:29.472Z,14.00
2022-11-13T15:57:57.333Z,13.90
2022-11-13T16:00:30.472Z,13.70
2022-11-13T16:03:00.801Z,13.60
2022-11-13T16:05:29.582Z,13.50
2022-11-13T16:07:56.873Z,13.40
2022-11-13T16:10:27.022Z,13.30
2022-11-13T16:12:54.206Z,13.10
2022-11-13T16:15:21.600Z,13.00
2022-11-13T16:17:54.467Z,12.90
2022-11-13T16:20:21.340Z,12.80
2022-11-13T16:22:48.290Z,12.70
2022-11-13T16:25:20.308Z,12.60
2022-11-13T16:27:47.696Z,12.60
2022-11-13T16:30:17.546Z,12.50
2022-11-13T16:32:44.482Z,12.40
2022-11-13T16:35:19.331Z,12.30
2022-11-13T16:37:46.157Z,12.30
2022-11-13T16:40:26.585Z,12.20
2022-11-13T16:42:53.897Z,12.10
2022-11-13T16:45:21.703Z,12.00
2022-11-13T16:47:50.724Z,11.90
2022-11-13T16:50:20.119Z,11.80
2022-11-13T16:52:46.824Z,11.70
2022-11-13T16:55:13.611Z,11.60
2022-11-13T16:57:43.707Z,11.60
2022-11-13T17:00:14.719Z,11.50
2022-11-13T17:02:41.857Z,11.40
2022-11-13T17:05:13.992Z,11.30
2022-11-13T17:07:41.230Z,11.20
2022-11-13T17:10:33.867Z,11.20
2022-11-13T17:13:01.118Z,11.10
2022-11-13T17:15:31.281Z,11.00
2022-11-13T17:17:58.702Z,10.90
2022-11-13T17:20:25.661Z,10.80
2022-11-13T17:22:52.433Z,10.70
2022-11-13T17:25:20.620Z,10.60
2022-11-13T17:27:47.416Z,10.50
2022-11-13T17:30:14.545Z,10.50
2022-11-13T17:32:41.520Z,10.40
2022-11-13T17:35:09.349Z,10.30
2022-11-13T17:37:36.249Z,10.30
2022-11-13T17:40:02.994Z,10.20
2022-11-13T17:42:29.774Z,10.10
2022-11-13T17:44:56.522Z,10.00
2022-11-13T17:47:23.232Z,10.00
2022-11-13T17:49:53.007Z,9.90
2022-11-13T17:52:19.839Z,9.90
2022-11-13T17:54:46.526Z,9.80
2022-11-13T17:57:13.246Z,9.80
2022-11-13T17:59:41.281Z,9.70
2022-11-13T18:02:11.387Z,9.70
2022-11-13T18:04:38.063Z,9.60
2022-11-13T18:07:04.872Z,9.60
2022-11-13T18:09:35.624Z,9.50
2022-11-13T18:12:02.348Z,9.50
2022-11-13T18:14:29.103Z,9.50
2022-11-13T18:16:55.869Z,9.50
2022-11-13T18:19:22.585Z,9.40
2022-11-13T18:21:49.422Z,9.40
2022-11-13T18:24:18.131Z,9.40
2022-11-13T18:26:45.596Z,9.40
2022-11-13T18:29:12.363Z,9.40
2022-11-13T18:31:39.287Z,9.40
2022-11-13T18:34:07.300Z,9.40
2022-11-13T18:36:34.888Z,9.30
2022-11-13T18:39:04.723Z,9.30
2022-11-13T18:41:32.765Z,9.20
2022-11-13T18:43:59.487Z,9.20
2022-11-13T18:46:26.445Z,9.20
2022-11-13T18:48:54.797Z,9.10
2022-11-13T18:51:24.615Z,9.10
2022-11-13T18:53:53.064Z,9.10
2022-11-13T18:56:28.761Z,9.00
2022-11-13T18:58:56.870Z,9.00
2022-11-13T19:01:29.104Z,8.90
2022-11-13T19:04:22.325Z,8.90
2022-11-13T19:06:52.788Z,8.80
2022-11-13T19:09:20.132Z,8.80
2022-11-13T19:11:47.303Z,8.70
2022-11-13T19:14:17.815Z,8.70
2022-11-13T19:16:44.757Z,8.70
2022-11-13T19:19:20.639Z,8.60
2022-11-13T19:21:47.661Z,8.60
2022-11-13T19:24:15.060Z,8.60
2022-11-13T19:26:42.840Z,8.50
2022-11-13T19:29:10.570Z,8.50
2022-11-13T19:31:37.355Z,8.50
2022-11-13T19:34:07.150Z,8.50
2022-11-13T19:36:35.063Z,8.40
2022-11-13T19:39:02.182Z,8.40
2022-11-13T19:41:29.904Z,8.40
2022-11-13T19:43:59.709Z,8.30
2022-11-13T19:46:27.148Z,8.30
2022-11-13T19:49:47.978Z,8.20
2022-11-13T19:52:15.032Z,8.20
2022-11-13T19:54:42.123Z,8.10
2022-11-13T19:57:09.105Z,8.10
2022-11-13T19:59:35.769Z,8.10
2022-11-13T20:02:02.475Z,8.00
2022-11-13T20:04:29.276Z,7.90
2022-11-13T20:06:58.808Z,7.90
2022-11-13T20:09:25.510Z,7.80
2022-11-13T20:11:52.215Z,7.80
2022-11-13T20:14:19.093Z,7.70
2022-11-13T20:16:45.809Z,7.80
2022-11-13T20:19:12.603Z,7.70
2022-11-13T20:21:40.875Z,7.80
2022-11-13T20:24:10.011Z,7.70
2022-11-13T20:26:36.819Z,7.70
2022-11-13T20:29:03.547Z,7.60
2022-11-13T20:31:30.544Z,7.60
2022-11-13T20:33:57.665Z,7.60
2022-11-13T20:36:25.199Z,7.50
2022-11-13T20:38:54.578Z,7.50
2022-11-13T20:41:21.652Z,7.40
2022-11-13T20:43:49.045Z,7.40
2022-11-13T20:46:17.686Z,7.30
2022-11-13T20:48:48.062Z,7.30
2022-11-13T20:51:20.566Z,7.20
2022-11-13T20:53:55.858Z,7.20
2022-11-13T20:56:24.993Z,7.20
2022-11-13T20:58:52.087Z,7.10
2022-11-13T21:01:21.852Z,7.10
2022-11-13T21:03:49.188Z,7.10
2022-11-13T21:06:21.493Z,7.10
2022-11-13T21:08:48.815Z,7.00
2022-11-13T21:11:19.071Z,7.00
2022-11-13T21:13:47.498Z,6.90
2022-11-13T21:16:14.577Z,6.90
2022-11-13T21:18:42.057Z,6.90
2022-11-13T21:21:11.866Z,6.90
2022-11-13T21:23:38.770Z,6.90
2022-11-13T21:26:07.191Z,6.80
2022-11-13T21:28:34.485Z,6.80
2022-11-13T21:31:07.108Z,6.80
2022-11-13T21:33:41.687Z,6.70
2022-11-13T21:36:21.913Z,6.70
2022-11-13T21:38:53.305Z,6.60
2022-11-13T21:41:26.897Z,6.60
2022-11-13T21:44:06.859Z,6.50
2022-11-13T21:46:38.545Z,6.50
2022-11-13T21:49:08.652Z,6.50
2022-11-13T21:51:37.150Z,6.40
2022-11-13T21:54:04.595Z,6.40
2022-11-13T21:56:32.949Z,6.40
2022-11-13T21:59:00.066Z,6.40
2022-11-13T22:01:27.336Z,6.30
2022-11-13T22:03:54.888Z,6.30
2022-11-13T22:06:24.298Z,6.30
2022-11-13T22:09:01.651Z,6.30
2022-11-13T22:11:30.705Z,6.30
2022-11-13T22:13:57.706Z,6.30
2022-11-13T22:16:25.942Z,6.30
2022-11-13T22:18:54.895Z,6.30
2022-11-13T22:21:23.386Z,6.30
2022-11-13T22:23:50.331Z,6.30
2022-11-13T22:26:18.397Z,6.20
2022-11-13T22:28:49.208Z,6.20
2022-11-13T22:31:40.049Z,6.20
2022-11-13T22:34:09.055Z,6.20
2022-11-13T22:36:36.910Z,6.10
2022-11-13T22:39:04.244Z,6.10
2022-11-13T22:41:33.388Z,6.10
2022-11-13T22:44:05.897Z,6.10
2022-11-13T22:46:34.809Z,6.10
2022-11-13T22:49:02.562Z,6.10
2022-11-13T22:51:38.599Z,6.10
2022-11-13T22:54:10.717Z,6.00
2022-11-13T22:56:38.998Z,6.00
2022-11-13T22:59:07.654Z,6.00
2022-11-13T23:01:36.624Z,5.90
2022-11-13T23:04:05.756Z,5.90
2022-11-13T23:06:34.224Z,5.90
2022-11-13T23:09:01.651Z,5.80
2022-11-13T23:11:34.676Z,5.80
2022-11-13T23:14:03.964Z,5.80
2022-11-13T23:16:31.629Z,5.70
2022-11-13T23:18:59.975Z,5.70
2022-11-13T23:21:28.085Z,5.70
2022-11-13T23:23:55.475Z,5.70
2022-11-13T23:26:23.129Z,5.60
2022-11-13T23:28:49.837Z,5.60
2022-11-13T23:31:16.884Z,5.60
2022-11-13T23:33:43.594Z,5.60
2022-11-13T23:36:12.538Z,5.60
2022-11-13T23:38:39.338Z,5.60
2022-11-13T23:41:06.615Z,5.60
2022-11-13T23:44:02.067Z,5.60
2022-11-13T23:46:20.312Z,5.60
2022-11-13T23:48:47.062Z,5.60
2022-11-13T23:51:13.791Z,5.60
2022-11-13T23:53:40.450Z,5.60
2022-11-13T23:56:08.132Z,5.60
2022-11-13T23:58:37.587Z,5.60
